createdAt,value
2023-04-01T00:02:04.539Z,6.35
2023-04-01T00:04:33.459Z,6.65
2023-04-01T00:07:04.184Z,7.20
2023-04-01T00:09:32.954Z,5.97
2023-04-01T00:12:01.768Z,5.63
2023-04-01T00:14:30.791Z,6.15
2023-04-01T00:16:59.640Z,7.40
2023-04-01T00:19:28.582Z,5.47
2023-04-01T00:22:12.504Z,5.90
2023-04-01T00:24:40.928Z,4.68
2023-04-01T00:27:09.874Z,5.50
2023-04-01T00:29:38.839Z,5.50
2023-04-01T00:32:07.976Z,6.82
2023-04-01T00:34:38.862Z,7.38
2023-04-01T00:37:09.233Z,4.78
2023-04-01T00:39:38.175Z,5.40
2023-04-01T00:42:07.206Z,5.57
2023-04-01T00:44:36.502Z,6.38
2023-04-01T00:47:05.506Z,7.13
2023-04-01T00:49:38.821Z,6.22
2023-04-01T00:52:12.355Z,6.47
2023-04-01T00:54:43.207Z,6.47
2023-04-01T00:57:18.206Z,7.53
2023-04-01T00:59:50.806Z,5.07
2023-04-01T01:02:19.533Z,5.72
2023-04-01T01:04:57.203Z,6.22
2023-04-01T01:10:20.872Z,6.70
2023-04-01T01:12:57.047Z,8.85
2023-04-01T01:15:29.326Z,6.20
2023-04-01T01:18:02.702Z,5.13
2023-04-01T01:21:00.165Z,7.88
2023-04-01T01:24:02.287Z,6.80
2023-04-01T01:27:04.292Z,6.53
2023-04-01T01:30:07.621Z,6.28
2023-04-01T01:33:09.050Z,5.47
2023-04-01T01:35:41.392Z,6.13
2023-04-01T01:38:15.781Z,6.72
2023-04-01T01:40:48.067Z,6.13
2023-04-01T01:43:20.773Z,6.07
2023-04-01T01:45:53.294Z,7.03
2023-04-01T01:48:21.889Z,7.85
2023-04-01T01:50:53.007Z,6.88
2023-04-01T01:53:21.872Z,7.38
2023-04-01T01:55:50.467Z,7.28
2023-04-01T01:58:22.365Z,7.40
2023-04-01T02:00:53.619Z,5.82
2023-04-01T02:03:24.394Z,7.18
2023-04-01T02:05:57.413Z,7.97
2023-04-01T02:08:30.721Z,8.43
2023-04-01T02:11:04.526Z,8.07
2023-04-01T02:13:40.315Z,7.75
2023-04-01T02:16:16.204Z,8.55
2023-04-01T02:18:48.715Z,8.32
2023-04-01T02:21:23.467Z,6.75
2023-04-01T02:24:09.493Z,9.27
2023-04-01T02:26:38.388Z,7.90
2023-04-01T02:29:11.687Z,8.25
2023-04-01T02:31:41.107Z,7.45
2023-04-01T02:34:09.777Z,9.63
2023-04-01T02:36:41.310Z,7.20
2023-04-01T02:39:11.534Z,7.82
2023-04-01T02:41:44.405Z,7.40
2023-04-01T02:44:14.168Z,8.55
2023-04-01T02:46:46.341Z,8.45
2023-04-01T02:49:15.288Z,7.20
2023-04-01T02:51:45.461Z,8.95
2023-04-01T02:54:13.816Z,7.85
2023-04-01T02:56:42.928Z,9.18
2023-04-01T02:59:12.120Z,6.78
2023-04-01T03:01:41.347Z,8.27
2023-04-01T03:04:10.550Z,7.78
2023-04-01T03:06:39.179Z,8.07
2023-04-01T03:09:23.353Z,7.35
2023-04-01T03:11:52.190Z,6.20
2023-04-01T03:14:20.608Z,8.43
2023-04-01T03:16:51.510Z,6.90
2023-04-01T03:19:21.220Z,7.90
2023-04-01T03:21:50.253Z,7.20
2023-04-01T03:24:22.487Z,7.75
2023-04-01T03:26:51.082Z,6.10
2023-04-01T03:29:20.180Z,7.50
2023-04-01T03:31:48.896Z,8.20
2023-04-01T03:34:17.494Z,6.88
2023-04-01T03:36:46.448Z,8.10
2023-04-01T03:39:15.303Z,8.63
2023-04-01T03:41:45.894Z,8.05
2023-04-01T03:44:14.557Z,8.77
2023-04-01T03:46:43.708Z,7.82
2023-04-01T03:49:13.575Z,7.53
2023-04-01T03:51:42.769Z,6.45
2023-04-01T03:54:12.214Z,7.32
2023-04-01T03:56:41.294Z,8.55
2023-04-01T03:59:12.118Z,8.02
2023-04-01T04:01:41.154Z,7.25
2023-04-01T04:04:10.763Z,7.07
2023-04-01T04:06:40.609Z,8.40
2023-04-01T04:09:09.582Z,7.40
2023-04-01T04:11:38.461Z,8.95
2023-04-01T04:14:07.317Z,9.10
2023-04-01T04:16:39.162Z,8.35
2023-04-01T04:19:08.123Z,9.40
2023-04-01T04:21:36.973Z,10.40
2023-04-01T04:24:06.185Z,11.68
2023-04-01T04:26:36.116Z,9.45
2023-04-01T04:29:05.078Z,9.70
2023-04-01T04:31:35.026Z,12.82
2023-04-01T04:34:06.806Z,10.45
2023-04-01T04:36:35.712Z,12.00
2023-04-01T04:39:04.375Z,12.50
2023-04-01T04:41:34.442Z,11.45
2023-04-01T04:44:05.937Z,13.25
2023-04-01T04:46:35.058Z,16.88
2023-04-01T04:49:05.957Z,11.68
2023-04-01T04:51:35.089Z,14.43
2023-04-01T04:54:08.377Z,13.88
2023-04-01T04:56:37.289Z,14.82
2023-04-01T04:59:05.606Z,16.45
2023-04-01T05:01:34.586Z,15.18
2023-04-01T05:04:03.764Z,15.30
2023-04-01T05:06:34.510Z,16.98
2023-04-01T05:09:03.076Z,17.88
2023-04-01T05:11:32.086Z,18.60
2023-04-01T05:14:00.917Z,24.65
2023-04-01T05:16:29.948Z,21.00
2023-04-01T05:18:58.780Z,25.20
2023-04-01T05:21:28.088Z,28.35
2023-04-01T05:23:58.673Z,24.45
2023-04-01T05:26:27.537Z,25.38
2023-04-01T05:28:56.580Z,23.88
2023-04-01T05:31:26.752Z,24.50
2023-04-01T05:33:55.667Z,22.92
2023-04-01T05:36:24.337Z,20.27
2023-04-01T05:38:56.151Z,19.88
2023-04-01T05:41:26.370Z,18.75
2023-04-01T05:43:55.186Z,17.80
2023-04-01T05:46:23.793Z,16.20
2023-04-01T05:48:54.248Z,18.30
2023-04-01T05:51:23.399Z,16.42
2023-04-01T05:53:52.000Z,20.50
2023-04-01T05:56:20.759Z,19.25
2023-04-01T05:58:54.208Z,19.67
2023-04-01T06:01:24.611Z,18.45
2023-04-01T06:03:53.818Z,20.63
2023-04-01T06:06:27.231Z,19.48
2023-04-01T06:08:57.727Z,19.35
2023-04-01T06:11:35.765Z,23.55
2023-04-01T06:14:25.760Z,20.10
2023-04-01T06:17:10.086Z,19.30
2023-04-01T06:19:47.479Z,16.42
2023-04-01T06:22:36.171Z,17.27
2023-04-01T06:25:36.442Z,17.35
2023-04-01T06:28:41.259Z,18.48
2023-04-01T06:31:19.038Z,17.83
2023-04-01T06:34:02.856Z,14.25
2023-04-01T06:36:45.602Z,13.43
2023-04-01T06:39:28.895Z,15.23
2023-04-01T06:42:19.115Z,12.20
2023-04-01T06:44:57.415Z,13.88
2023-04-01T06:47:51.744Z,11.25
2023-04-01T06:50:27.076Z,11.98
2023-04-01T06:53:03.586Z,11.10
2023-04-01T06:55:38.939Z,9.77
2023-04-01T06:58:13.018Z,9.63
2023-04-01T07:00:43.967Z,10.10
2023-04-01T07:03:23.239Z,11.57
2023-04-01T07:05:52.109Z,13.55
2023-04-01T07:08:24.217Z,9.95
2023-04-01T07:10:58.693Z,10.75
2023-04-01T07:13:31.615Z,10.65
2023-04-01T07:16:11.340Z,8.85
2023-04-01T07:18:47.056Z,9.75
2023-04-01T07:21:26.430Z,9.45
2023-04-01T07:23:59.444Z,12.02
2023-04-01T07:26:28.610Z,9.70
2023-04-01T07:28:57.317Z,9.20
2023-04-01T07:31:42.036Z,9.52
2023-04-01T07:34:18.298Z,10.13
2023-04-01T07:36:52.770Z,11.35
2023-04-01T07:39:33.155Z,7.60
2023-04-01T07:42:07.199Z,10.73
2023-04-01T07:44:48.429Z,9.00
2023-04-01T07:47:32.259Z,8.85
2023-04-01T07:50:15.272Z,8.40
2023-04-01T07:52:51.361Z,7.43
2023-04-01T07:55:26.146Z,6.38
2023-04-01T07:58:04.539Z,7.68
2023-04-01T08:00:42.447Z,7.18
2023-04-01T08:03:23.652Z,6.82
2023-04-01T08:05:59.611Z,7.00
2023-04-01T08:08:38.618Z,5.88
2023-04-01T08:11:15.564Z,10.10
2023-04-01T08:13:51.656Z,7.22
2023-04-01T08:16:26.523Z,9.38
2023-04-01T08:19:05.749Z,7.00
2023-04-01T08:21:41.698Z,7.30
2023-04-01T08:24:21.421Z,9.98
2023-04-01T08:26:56.291Z,19.10
2023-04-01T08:29:29.519Z,7.65
2023-04-01T08:32:00.977Z,6.30
2023-04-01T08:34:34.773Z,5.65
2023-04-01T08:37:08.374Z,6.97
2023-04-01T08:39:41.261Z,5.85
2023-04-01T08:42:38.515Z,4.07
2023-04-01T08:45:33.843Z,6.07
2023-04-01T08:48:24.944Z,5.68
2023-04-01T08:51:36.128Z,5.30
2023-04-01T08:54:34.269Z,4.93
2023-04-01T08:57:09.313Z,3.50
2023-04-01T08:59:56.352Z,5.18
2023-04-01T09:02:41.318Z,3.97
2023-04-01T09:05:48.414Z,4.85
2023-04-01T09:08:31.136Z,4.15
2023-04-01T09:11:10.447Z,5.07
2023-04-01T09:14:14.727Z,6.22
2023-04-01T09:17:18.552Z,4.47
2023-04-01T09:20:01.091Z,3.85
2023-04-01T09:22:53.322Z,4.35
2023-04-01T09:25:41.259Z,5.78
2023-04-01T09:28:17.036Z,3.45
2023-04-01T09:31:08.448Z,4.35
2023-04-01T09:34:23.472Z,4.00
2023-04-01T09:37:07.285Z,5.18
2023-04-01T09:39:40.947Z,4.55
2023-04-01T09:42:29.432Z,4.35
2023-04-01T09:45:01.094Z,3.47
2023-04-01T09:47:53.314Z,2.53
2023-04-01T09:50:38.899Z,2.67
2023-04-01T09:53:20.647Z,3.55
2023-04-01T09:56:21.210Z,5.50
2023-04-01T09:59:14.282Z,2.13
2023-04-01T10:01:55.691Z,2.75
2023-04-01T10:05:06.280Z,3.47
2023-04-01T10:08:06.711Z,2.17
2023-04-01T10:11:01.827Z,3.63
2023-04-01T10:14:20.902Z,3.30
2023-04-01T10:17:16.779Z,2.45
2023-04-01T10:23:13.211Z,1.90
2023-04-01T10:26:32.339Z,2.08
2023-04-01T10:29:29.706Z,2.50
2023-04-01T10:32:29.640Z,3.85
2023-04-01T10:35:34.229Z,2.30
2023-04-01T10:38:36.324Z,1.63
2023-04-01T10:41:45.046Z,3.47
2023-04-01T10:45:03.837Z,2.08
2023-04-01T10:48:03.958Z,2.38
2023-04-01T10:51:05.019Z,2.65
2023-04-01T10:53:43.034Z,3.35
2023-04-01T10:56:36.400Z,2.80
2023-04-01T10:59:31.632Z,4.07
2023-04-01T11:02:59.097Z,2.72
2023-04-01T11:05:58.781Z,3.13
2023-04-01T11:09:02.261Z,4.18
2023-04-01T11:12:11.170Z,4.20
2023-04-01T11:15:07.526Z,4.32
2023-04-01T11:18:14.641Z,3.05
2023-04-01T11:21:26.765Z,3.90
2023-04-01T11:24:18.751Z,2.90
2023-04-01T11:26:59.247Z,2.63
2023-04-01T11:29:58.821Z,3.60
2023-04-01T11:32:41.688Z,2.42
2023-04-01T11:35:58.201Z,3.45
2023-04-01T11:39:03.187Z,3.08
2023-04-01T11:41:43.503Z,3.67
2023-04-01T11:44:20.660Z,4.18
2023-04-01T11:47:08.065Z,4.13
2023-04-01T11:49:47.647Z,2.15
2023-04-01T11:52:41.850Z,4.80
2023-04-01T11:55:35.144Z,4.45
2023-04-01T11:58:32.262Z,4.43
2023-04-01T12:01:25.921Z,3.50
2023-04-01T12:04:46.159Z,3.58
2023-04-01T12:07:24.710Z,2.40
2023-04-01T12:10:04.964Z,3.22
2023-04-01T12:12:54.196Z,3.28
2023-04-01T12:15:38.855Z,2.55
2023-04-01T12:18:16.448Z,2.30
2023-04-01T12:20:52.442Z,2.42
2023-04-01T12:23:42.546Z,3.42
2023-04-01T12:26:34.452Z,3.30
2023-04-01T12:29:24.423Z,3.10
2023-04-01T12:32:04.000Z,2.42
2023-04-01T12:35:27.484Z,2.63
2023-04-01T12:38:10.737Z,3.55
2023-04-01T12:40:51.909Z,2.92
2023-04-01T12:43:45.942Z,3.45
2023-04-01T12:46:24.039Z,4.03
2023-04-01T12:49:25.145Z,2.70
2023-04-01T12:52:06.238Z,2.42
2023-04-01T12:55:19.348Z,3.25
2023-04-01T12:58:35.802Z,3.25
2023-04-01T13:01:45.656Z,3.45
2023-04-01T13:04:50.314Z,2.97
2023-04-01T13:07:31.172Z,2.35
2023-04-01T13:10:09.668Z,1.75
2023-04-01T13:13:10.029Z,3.55
2023-04-01T13:15:48.188Z,4.88
2023-04-01T13:18:29.512Z,3.38
2023-04-01T13:21:08.713Z,2.17
2023-04-01T13:23:48.418Z,2.67
2023-04-01T13:26:25.020Z,4.10
2023-04-01T13:29:01.854Z,2.53
2023-04-01T13:31:47.844Z,1.83
2023-04-01T13:34:30.209Z,2.53
2023-04-01T13:37:13.663Z,3.50
2023-04-01T13:39:53.734Z,3.88
2023-04-01T13:42:27.577Z,2.28
2023-04-01T13:45:02.325Z,2.30
2023-04-01T13:47:56.545Z,2.33
2023-04-01T13:50:40.184Z,7.47
2023-04-01T13:53:36.054Z,2.45
2023-04-01T13:56:17.019Z,1.73
2023-04-01T13:59:07.408Z,1.73
2023-04-01T14:01:43.943Z,1.30
2023-04-01T14:04:45.754Z,3.10
2023-04-01T14:07:25.868Z,3.75
2023-04-01T14:10:07.965Z,1.95
2023-04-01T14:12:46.800Z,1.27
2023-04-01T14:15:32.370Z,1.20
2023-04-01T14:18:33.628Z,1.20
2023-04-01T14:21:19.984Z,1.73
2023-04-01T14:24:01.915Z,2.05
2023-04-01T14:26:58.104Z,3.25
2023-04-01T14:29:33.305Z,2.75
2023-04-01T14:32:11.361Z,2.60
2023-04-01T14:35:01.621Z,2.10
2023-04-01T14:37:57.289Z,2.78
2023-04-01T14:41:01.478Z,4.35
2023-04-01T14:43:50.824Z,6.13
2023-04-01T14:46:47.863Z,5.00
2023-04-01T14:49:23.716Z,3.10
2023-04-01T14:51:55.106Z,1.95
2023-04-01T14:54:33.880Z,2.33
2023-04-01T14:57:13.762Z,2.42
2023-04-01T14:59:53.813Z,2.85
2023-04-01T15:02:42.165Z,3.05
2023-04-01T15:05:21.849Z,2.75
2023-04-01T15:08:17.651Z,2.30
2023-04-01T15:11:04.969Z,2.40
2023-04-01T15:13:52.716Z,2.20
2023-04-01T15:16:28.206Z,2.58
2023-04-01T15:19:06.188Z,2.40
2023-04-01T15:21:53.466Z,5.90
2023-04-01T15:24:26.609Z,6.05
2023-04-01T15:27:13.370Z,9.55
2023-04-01T15:30:02.516Z,4.57
2023-04-01T15:32:45.118Z,3.53
2023-04-01T15:35:27.236Z,3.97
2023-04-01T15:37:58.558Z,7.78
2023-04-01T15:40:32.824Z,3.92
2023-04-01T15:43:14.776Z,3.95
2023-04-01T15:45:57.900Z,3.33
2023-04-01T15:48:44.258Z,3.15
2023-04-01T15:51:29.570Z,2.08
2023-04-01T15:54:40.668Z,2.47
2023-04-01T15:57:21.285Z,4.65
2023-04-01T16:00:13.101Z,2.67
2023-04-01T16:02:50.080Z,3.30
2023-04-01T16:05:33.592Z,2.53
2023-04-01T16:08:19.340Z,2.35
2023-04-01T16:11:01.604Z,2.78
2023-04-01T16:13:42.591Z,2.10
2023-04-01T16:16:22.014Z,1.83
2023-04-01T16:19:04.157Z,3.47
2023-04-01T16:21:51.270Z,2.53
2023-04-01T16:24:27.135Z,1.58
2023-04-01T16:27:00.513Z,2.80
2023-04-01T16:29:37.858Z,3.78
2023-04-01T16:32:23.479Z,3.67
2023-04-01T16:35:06.893Z,2.50
2023-04-01T16:37:43.260Z,3.42
2023-04-01T16:42:53.607Z,4.85
2023-04-01T16:45:35.620Z,3.88
2023-04-01T16:48:12.663Z,2.47
2023-04-01T16:50:53.777Z,2.28
2023-04-01T16:53:33.488Z,2.75
2023-04-01T16:56:12.468Z,1.80
2023-04-01T16:58:45.624Z,2.78
2023-04-01T17:01:23.980Z,2.88
2023-04-01T17:04:00.307Z,4.00
2023-04-01T17:06:39.340Z,5.07
2023-04-01T17:09:37.043Z,6.30
2023-04-01T17:12:12.335Z,16.00
2023-04-01T17:14:49.654Z,23.88
2023-04-01T17:17:31.387Z,19.30
2023-04-01T17:20:17.410Z,18.08
2023-04-01T17:22:52.976Z,13.65
2023-04-01T17:25:41.298Z,4.38
2023-04-01T17:28:23.912Z,6.53
2023-04-01T17:30:56.975Z,9.18
2023-04-01T17:33:42.644Z,5.50
2023-04-01T17:36:23.985Z,6.38
2023-04-01T17:39:20.702Z,5.20
2023-04-01T17:41:56.608Z,3.92
2023-04-01T17:47:16.397Z,7.30
2023-04-01T17:49:50.940Z,5.00
2023-04-01T17:52:26.704Z,6.97
2023-04-01T17:55:01.836Z,10.57
2023-04-01T17:57:48.203Z,10.30
2023-04-01T18:00:25.204Z,7.63
2023-04-01T18:03:09.099Z,12.93
2023-04-01T18:05:57.592Z,7.20
2023-04-01T18:08:45.802Z,5.40
2023-04-01T18:11:23.012Z,4.72
2023-04-01T18:14:24.552Z,6.07
2023-04-01T18:17:11.278Z,5.68
2023-04-01T18:19:50.450Z,6.30
2023-04-01T18:22:23.467Z,5.32
2023-04-01T18:24:59.554Z,3.72
2023-04-01T18:27:34.181Z,4.10
2023-04-01T18:30:14.217Z,3.33
2023-04-01T18:32:50.542Z,3.30
2023-04-01T18:35:26.807Z,3.53
2023-04-01T18:40:32.126Z,4.15
2023-04-01T18:43:12.603Z,3.55
2023-04-01T18:45:47.511Z,4.93
2023-04-01T18:48:45.664Z,5.93
2023-04-01T18:51:23.019Z,3.17
2023-04-01T18:53:58.755Z,4.07
2023-04-01T18:56:31.672Z,5.53
2023-04-01T18:59:13.110Z,4.53
2023-04-01T19:01:49.622Z,2.97
2023-04-01T19:04:33.025Z,3.58
2023-04-01T19:07:04.266Z,4.05
2023-04-01T19:09:34.558Z,4.53
2023-04-01T19:12:21.404Z,3.38
2023-04-01T19:14:57.239Z,3.72
2023-04-01T19:17:41.582Z,5.27
2023-04-01T19:20:20.558Z,5.10
2023-04-01T19:23:10.315Z,3.70
2023-04-01T19:25:42.684Z,4.75
2023-04-01T19:28:36.555Z,10.43
2023-04-01T19:31:13.766Z,3.60
2023-04-01T19:33:54.822Z,13.70
2023-04-01T19:36:31.781Z,16.80
2023-04-01T19:39:12.197Z,14.95
2023-04-01T19:41:49.387Z,9.82
2023-04-01T19:44:33.248Z,10.05
2023-04-01T19:47:11.450Z,6.28
2023-04-01T19:49:53.836Z,4.55
2023-04-01T19:52:30.741Z,9.55
2023-04-01T19:55:11.453Z,4.90
2023-04-01T19:57:50.165Z,4.43
2023-04-01T20:00:26.656Z,3.90
2023-04-01T20:03:04.356Z,4.80
2023-04-01T20:05:58.886Z,5.43
2023-04-01T20:08:36.213Z,4.18
2023-04-01T20:11:19.129Z,3.53
2023-04-01T20:13:56.442Z,3.13
2023-04-01T20:16:40.207Z,3.83
2023-04-01T20:19:10.512Z,3.50
2023-04-01T20:21:47.177Z,4.78
2023-04-01T20:26:52.415Z,3.13
2023-04-01T20:29:39.556Z,3.40
2023-04-01T20:32:20.361Z,3.90
2023-04-01T20:35:01.256Z,4.55
2023-04-01T20:37:40.773Z,4.47
2023-04-01T20:40:34.224Z,4.47
2023-04-01T20:43:25.624Z,5.03
2023-04-01T20:45:59.635Z,3.22
2023-04-01T20:48:43.132Z,5.43
2023-04-01T20:51:18.905Z,4.55
2023-04-01T20:54:01.374Z,3.83
2023-04-01T20:56:43.247Z,3.50
2023-04-01T20:59:39.448Z,3.33
2023-04-01T21:05:06.226Z,4.40
2023-04-01T21:07:40.221Z,4.45
2023-04-01T21:10:31.688Z,4.05
2023-04-01T21:13:11.863Z,5.57
2023-04-01T21:15:50.221Z,7.10
2023-04-01T21:18:32.565Z,5.47
2023-04-01T21:21:32.122Z,7.93
2023-04-01T21:24:30.612Z,4.85
2023-04-01T21:27:09.648Z,4.90
2023-04-01T21:30:10.341Z,3.88
2023-04-01T21:32:56.624Z,3.22
2023-04-01T21:35:34.113Z,5.40
2023-04-01T21:38:21.450Z,5.65
2023-04-01T21:41:03.684Z,6.30
2023-04-01T21:44:12.804Z,4.10
2023-04-01T21:47:03.678Z,6.43
2023-04-01T21:49:52.718Z,5.80
2023-04-01T21:53:03.649Z,5.50
2023-04-01T21:56:04.561Z,5.32
2023-04-01T21:58:55.361Z,4.53
2023-04-01T22:01:50.337Z,4.85
2023-04-01T22:04:46.349Z,6.22
2023-04-01T22:07:19.653Z,4.82
2023-04-01T22:10:00.952Z,5.10
2023-04-01T22:12:38.429Z,4.97
2023-04-01T22:15:18.317Z,7.22
2023-04-01T22:17:56.105Z,5.22
2023-04-01T22:20:31.909Z,5.55
2023-04-01T22:23:22.062Z,5.40
2023-04-01T22:25:58.974Z,4.68
2023-04-01T22:28:35.587Z,5.30
2023-04-01T22:31:05.996Z,3.78
2023-04-01T22:33:41.633Z,5.15
2023-04-01T22:36:20.980Z,3.80
2023-04-01T22:39:07.059Z,3.55
2023-04-01T22:41:50.101Z,3.42
2023-04-01T22:44:31.650Z,4.43
2023-04-01T22:47:07.832Z,3.38
2023-04-01T22:49:43.960Z,3.50
2023-04-01T22:52:20.428Z,5.88
2023-04-01T22:54:53.909Z,3.20
2023-04-01T22:57:39.661Z,5.03
2023-04-01T23:00:16.353Z,7.47
2023-04-01T23:02:48.812Z,4.68
2023-04-01T23:05:23.399Z,7.10
2023-04-01T23:08:02.410Z,6.05
2023-04-01T23:10:43.290Z,4.03
2023-04-01T23:13:16.670Z,6.30
2023-04-01T23:15:49.311Z,5.25
2023-04-01T23:18:24.732Z,4.55
2023-04-01T23:21:22.748Z,5.55
2023-04-01T23:24:03.536Z,3.83
2023-04-01T23:26:38.063Z,4.60
2023-04-01T23:29:13.682Z,4.60
2023-04-01T23:31:43.842Z,4.07
2023-04-01T23:34:28.808Z,4.05
2023-04-01T23:37:00.170Z,5.10
2023-04-01T23:39:34.343Z,3.95
2023-04-01T23:42:06.662Z,3.08
2023-04-01T23:44:37.513Z,3.35
2023-04-01T23:47:10.169Z,3.40
2023-04-01T23:49:42.607Z,3.65
2023-04-01T23:52:17.029Z,3.08
2023-04-01T23:54:55.891Z,4.43
2023-04-01T23:57:29.886Z,3.28
